sensor_id;sensor_type;location;lat;lon;timestamp;P1;durP1;ratioP1;P2;durP2;ratioP2
25583;SDS011;13463;51.526;9.928;2023-12-20T00:00:56;7.00;;;5.65;;
25583;SDS011;13463;51.526;9.928;2023-12-20T00:03:23;6.65;;;5.38;;
25583;SDS011;13463;51.526;9.928;2023-12-20T00:05:50;7.60;;;5.95;;
25583;SDS011;13463;51.526;9.928;2023-12-20T00:08:17;8.80;;;7.15;;
25583;SDS011;13463;51.526;9.928;2023-12-20T00:10:44;8.75;;;6.47;;
25583;SDS011;13463;51.526;9.928;2023-12-20T00:13:10;8.05;;;6.32;;
25583;SDS011;13463;51.526;9.928;2023-12-20T00:15:37;6.57;;;5.65;;
25583;SDS011;13463;51.526;9.928;2023-12-20T00:18:04;6.78;;;5.53;;
25583;SDS011;13463;51.526;9.928;2023-12-20T00:20:31;8.85;;;6.18;;
25583;SDS011;13463;51.526;9.928;2023-12-20T00:22:58;7.95;;;6.35;;
25583;SDS011;13463;51.526;9.928;2023-12-20T00:25:24;7.47;;;6.25;;
25583;SDS011;13463;51.526;9.928;2023-12-20T00:27:51;7.88;;;6.45;;
25583;SDS011;13463;51.526;9.928;2023-12-20T00:30:18;8.13;;;6.25;;
25583;SDS011;13463;51.526;9.928;2023-12-20T00:32:44;8.52;;;6.13;;
25583;SDS011;13463;51.526;9.928;2023-12-20T00:35:13;8.07;;;5.85;;
25583;SDS011;13463;51.526;9.928;2023-12-20T00:37:41;7.55;;;5.85;;
25583;SDS011;13463;51.526;9.928;2023-12-20T00:40:08;7.07;;;5.85;;
25583;SDS011;13463;51.526;9.928;2023-12-20T00:42:35;5.13;;;4.38;;
25583;SDS011;13463;51.526;9.928;2023-12-20T00:45:02;6.47;;;5.25;;
25583;SDS011;13463;51.526;9.928;2023-12-20T00:47:31;5.78;;;4.65;;
25583;SDS011;13463;51.526;9.928;2023-12-20T00:49:57;4.88;;;4.38;;
25583;SDS011;13463;51.526;9.928;2023-12-20T00:52:24;4.50;;;3.92;;
25583;SDS011;13463;51.526;9.928;2023-12-20T00:54:51;6.03;;;4.15;;
25583;SDS011;13463;51.526;9.928;2023-12-20T00:57:18;4.93;;;4.30;;
25583;SDS011;13463;51.526;9.928;2023-12-20T00:59:45;5.85;;;4.72;;
25583;SDS011;13463;51.526;9.928;2023-12-20T01:02:11;4.38;;;3.75;;
25583;SDS011;13463;51.526;9.928;2023-12-20T01:04:38;4.97;;;4.22;;
25583;SDS011;13463;51.526;9.928;2023-12-20T01:07:04;5.55;;;4.40;;
25583;SDS011;13463;51.526;9.928;2023-12-20T01:09:31;5.93;;;3.95;;
25583;SDS011;13463;51.526;9.928;2023-12-20T01:11:58;4.60;;;3.53;;
25583;SDS011;13463;51.526;9.928;2023-12-20T01:14:24;4.72;;;3.90;;
25583;SDS011;13463;51.526;9.928;2023-12-20T01:16:51;4.45;;;3.85;;
25583;SDS011;13463;51.526;9.928;2023-12-20T01:19:17;5.35;;;3.85;;
25583;SDS011;13463;51.526;9.928;2023-12-20T01:21:44;4.93;;;3.78;;
25583;SDS011;13463;51.526;9.928;2023-12-20T01:24:11;4.53;;;3.58;;
25583;SDS011;13463;51.526;9.928;2023-12-20T01:26:37;4.78;;;3.25;;
25583;SDS011;13463;51.526;9.928;2023-12-20T01:29:04;4.78;;;3.95;;
25583;SDS011;13463;51.526;9.928;2023-12-20T01:31:30;4.28;;;3.85;;
25583;SDS011;13463;51.526;9.928;2023-12-20T01:33:57;7.55;;;4.28;;
25583;SDS011;13463;51.526;9.928;2023-12-20T01:36:24;4.38;;;3.55;;
25583;SDS011;13463;51.526;9.928;2023-12-20T01:38:50;5.35;;;4.30;;
25583;SDS011;13463;51.526;9.928;2023-12-20T01:41:17;6.38;;;4.30;;
25583;SDS011;13463;51.526;9.928;2023-12-20T01:43:43;4.95;;;3.92;;
25583;SDS011;13463;51.526;9.928;2023-12-20T01:46:17;5.55;;;4.47;;
25583;SDS011;13463;51.526;9.928;2023-12-20T01:48:44;5.68;;;4.55;;
25583;SDS011;13463;51.526;9.928;2023-12-20T01:51:11;5.47;;;4.68;;
25583;SDS011;13463;51.526;9.928;2023-12-20T01:53:38;8.10;;;5.63;;
25583;SDS011;13463;51.526;9.928;2023-12-20T01:56:06;6.43;;;5.28;;
25583;SDS011;13463;51.526;9.928;2023-12-20T01:58:33;7.32;;;5.72;;
25583;SDS011;13463;51.526;9.928;2023-12-20T02:01:00;7.55;;;6.55;;
25583;SDS011;13463;51.526;9.928;2023-12-20T02:03:27;11.13;;;6.40;;
25583;SDS011;13463;51.526;9.928;2023-12-20T02:05:54;7.95;;;6.47;;
25583;SDS011;13463;51.526;9.928;2023-12-20T02:08:21;6.15;;;5.25;;
25583;SDS011;13463;51.526;9.928;2023-12-20T02:10:48;6.53;;;5.60;;
25583;SDS011;13463;51.526;9.928;2023-12-20T02:13:15;6.80;;;5.88;;
25583;SDS011;13463;51.526;9.928;2023-12-20T02:15:41;9.02;;;7.05;;
25583;SDS011;13463;51.526;9.928;2023-12-20T02:18:10;8.27;;;6.40;;
25583;SDS011;13463;51.526;9.928;2023-12-20T02:20:36;6.90;;;5.90;;
25583;SDS011;13463;51.526;9.928;2023-12-20T02:23:03;6.45;;;5.80;;
25583;SDS011;13463;51.526;9.928;2023-12-20T02:25:30;6.25;;;5.55;;
25583;SDS011;13463;51.526;9.928;2023-12-20T02:27:56;7.38;;;5.43;;
25583;SDS011;13463;51.526;9.928;2023-12-20T02:30:23;6.40;;;5.30;;
25583;SDS011;13463;51.526;9.928;2023-12-20T02:32:50;10.05;;;6.75;;
25583;SDS011;13463;51.526;9.928;2023-12-20T02:35:18;6.22;;;5.00;;
25583;SDS011;13463;51.526;9.928;2023-12-20T02:37:45;5.57;;;4.68;;
25583;SDS011;13463;51.526;9.928;2023-12-20T02:40:12;5.82;;;4.65;;
25583;SDS011;13463;51.526;9.928;2023-12-20T02:42:39;5.88;;;4.80;;
25583;SDS011;13463;51.526;9.928;2023-12-20T02:45:06;6.90;;;5.38;;
25583;SDS011;13463;51.526;9.928;2023-12-20T02:47:33;6.10;;;4.80;;
25583;SDS011;13463;51.526;9.928;2023-12-20T02:49:59;6.15;;;4.32;;
25583;SDS011;13463;51.526;9.928;2023-12-20T02:52:27;6.22;;;4.07;;
25583;SDS011;13463;51.526;9.928;2023-12-20T02:54:55;4.22;;;3.38;;
25583;SDS011;13463;51.526;9.928;2023-12-20T02:57:21;6.75;;;3.05;;
25583;SDS011;13463;51.526;9.928;2023-12-20T02:59:48;4.20;;;2.75;;
25583;SDS011;13463;51.526;9.928;2023-12-20T03:02:14;6.07;;;2.40;;
25583;SDS011;13463;51.526;9.928;2023-12-20T03:04:41;3.78;;;2.50;;
25583;SDS011;13463;51.526;9.928;2023-12-20T03:07:08;3.65;;;2.40;;
25583;SDS011;13463;51.526;9.928;2023-12-20T03:09:34;5.82;;;2.30;;
25583;SDS011;13463;51.526;9.928;2023-12-20T03:12:21;6.40;;;2.67;;
25583;SDS011;13463;51.526;9.928;2023-12-20T03:14:48;4.13;;;2.47;;
25583;SDS011;13463;51.526;9.928;2023-12-20T03:17:15;3.40;;;1.98;;
25583;SDS011;13463;51.526;9.928;2023-12-20T03:19:41;4.13;;;1.90;;
25583;SDS011;13463;51.526;9.928;2023-12-20T03:22:08;4.95;;;1.48;;
25583;SDS011;13463;51.526;9.928;2023-12-20T03:24:35;14.25;;;2.60;;
25583;SDS011;13463;51.526;9.928;2023-12-20T03:27:01;7.07;;;2.70;;
25583;SDS011;13463;51.526;9.928;2023-12-20T03:29:28;4.88;;;2.50;;
25583;SDS011;13463;51.526;9.928;2023-12-20T03:31:54;5.85;;;2.22;;
25583;SDS011;13463;51.526;9.928;2023-12-20T03:34:21;4.18;;;2.08;;
25583;SDS011;13463;51.526;9.928;2023-12-20T03:36:48;4.38;;;2.13;;
25583;SDS011;13463;51.526;9.928;2023-12-20T03:39:14;8.35;;;1.98;;
25583;SDS011;13463;51.526;9.928;2023-12-20T03:41:41;4.32;;;2.38;;
25583;SDS011;13463;51.526;9.928;2023-12-20T03:44:07;6.47;;;1.70;;
25583;SDS011;13463;51.526;9.928;2023-12-20T03:46:34;3.47;;;1.35;;
25583;SDS011;13463;51.526;9.928;2023-12-20T03:49:00;10.02;;;1.55;;
25583;SDS011;13463;51.526;9.928;2023-12-20T03:51:30;2.83;;;1.40;;
25583;SDS011;13463;51.526;9.928;2023-12-20T03:53:56;5.05;;;1.50;;
25583;SDS011;13463;51.526;9.928;2023-12-20T03:56:23;5.80;;;1.17;;
25583;SDS011;13463;51.526;9.928;2023-12-20T03:58:49;2.85;;;1.33;;
25583;SDS011;13463;51.526;9.928;2023-12-20T04:01:16;4.65;;;1.15;;
25583;SDS011;13463;51.526;9.928;2023-12-20T04:03:43;6.38;;;1.27;;
25583;SDS011;13463;51.526;9.928;2023-12-20T04:06:09;3.40;;;1.30;;
25583;SDS011;13463;51.526;9.928;2023-12-20T04:08:36;4.10;;;1.13;;
25583;SDS011;13463;51.526;9.928;2023-12-20T04:11:03;8.45;;;1.52;;
25583;SDS011;13463;51.526;9.928;2023-12-20T04:13:29;4.88;;;1.42;;
25583;SDS011;13463;51.526;9.928;2023-12-20T04:15:56;5.10;;;1.60;;
25583;SDS011;13463;51.526;9.928;2023-12-20T04:18:22;7.30;;;1.65;;
25583;SDS011;13463;51.526;9.928;2023-12-20T04:20:49;8.02;;;1.45;;
25583;SDS011;13463;51.526;9.928;2023-12-20T04:23:17;3.63;;;1.40;;
25583;SDS011;13463;51.526;9.928;2023-12-20T04:25:45;6.82;;;2.10;;
25583;SDS011;13463;51.526;9.928;2023-12-20T04:28:13;3.78;;;1.88;;
25583;SDS011;13463;51.526;9.928;2023-12-20T04:30:39;5.50;;;1.80;;
25583;SDS011;13463;51.526;9.928;2023-12-20T04:33:06;12.85;;;1.75;;
25583;SDS011;13463;51.526;9.928;2023-12-20T04:35:32;5.60;;;1.60;;
25583;SDS011;13463;51.526;9.928;2023-12-20T04:37:59;6.75;;;2.45;;
25583;SDS011;13463;51.526;9.928;2023-12-20T04:40:26;3.33;;;1.77;;
25583;SDS011;13463;51.526;9.928;2023-12-20T04:42:53;5.75;;;1.70;;
25583;SDS011;13463;51.526;9.928;2023-12-20T04:45:19;13.10;;;2.88;;
25583;SDS011;13463;51.526;9.928;2023-12-20T04:47:46;6.13;;;1.65;;
25583;SDS011;13463;51.526;9.928;2023-12-20T04:50:13;8.25;;;2.50;;
25583;SDS011;13463;51.526;9.928;2023-12-20T04:52:41;7.00;;;1.77;;
25583;SDS011;13463;51.526;9.928;2023-12-20T04:55:08;10.02;;;2.28;;
25583;SDS011;13463;51.526;9.928;2023-12-20T04:57:35;3.60;;;1.73;;
25583;SDS011;13463;51.526;9.928;2023-12-20T05:00:01;8.35;;;2.15;;
25583;SDS011;13463;51.526;9.928;2023-12-20T05:02:29;5.72;;;2.15;;
25583;SDS011;13463;51.526;9.928;2023-12-20T05:04:56;6.93;;;2.10;;
25583;SDS011;13463;51.526;9.928;2023-12-20T05:07:22;5.47;;;1.70;;
25583;SDS011;13463;51.526;9.928;2023-12-20T05:09:49;12.98;;;2.35;;
25583;SDS011;13463;51.526;9.928;2023-12-20T05:12:15;6.95;;;1.70;;
25583;SDS011;13463;51.526;9.928;2023-12-20T05:14:42;9.38;;;1.55;;
25583;SDS011;13463;51.526;9.928;2023-12-20T05:17:08;7.63;;;1.70;;
25583;SDS011;13463;51.526;9.928;2023-12-20T05:19:35;7.43;;;1.98;;
25583;SDS011;13463;51.526;9.928;2023-12-20T05:22:02;9.93;;;1.73;;
25583;SDS011;13463;51.526;9.928;2023-12-20T05:24:29;5.85;;;1.23;;
25583;SDS011;13463;51.526;9.928;2023-12-20T05:26:55;8.13;;;1.85;;
25583;SDS011;13463;51.526;9.928;2023-12-20T05:29:22;9.25;;;1.85;;
25583;SDS011;13463;51.526;9.928;2023-12-20T05:31:48;8.05;;;2.20;;
25583;SDS011;13463;51.526;9.928;2023-12-20T05:34:15;8.13;;;1.75;;
25583;SDS011;13463;51.526;9.928;2023-12-20T05:36:42;9.73;;;2.35;;
25583;SDS011;13463;51.526;9.928;2023-12-20T05:39:08;8.35;;;1.65;;
25583;SDS011;13463;51.526;9.928;2023-12-20T05:41:35;10.85;;;1.83;;
25583;SDS011;13463;51.526;9.928;2023-12-20T05:44:02;8.90;;;2.17;;
25583;SDS011;13463;51.526;9.928;2023-12-20T05:46:28;5.78;;;1.20;;
25583;SDS011;13463;51.526;9.928;2023-12-20T05:48:55;6.05;;;1.45;;
25583;SDS011;13463;51.526;9.928;2023-12-20T05:51:22;9.43;;;2.17;;
25583;SDS011;13463;51.526;9.928;2023-12-20T05:53:48;13.07;;;1.85;;
25583;SDS011;13463;51.526;9.928;2023-12-20T05:56:16;5.70;;;1.52;;
25583;SDS011;13463;51.526;9.928;2023-12-20T05:58:42;6.85;;;1.83;;
25583;SDS011;13463;51.526;9.928;2023-12-20T06:01:10;12.75;;;2.10;;
25583;SDS011;13463;51.526;9.928;2023-12-20T06:03:36;8.77;;;2.40;;
25583;SDS011;13463;51.526;9.928;2023-12-20T06:06:06;11.05;;;1.92;;
25583;SDS011;13463;51.526;9.928;2023-12-20T06:08:42;9.85;;;2.15;;
25583;SDS011;13463;51.526;9.928;2023-12-20T06:11:10;7.38;;;1.80;;
25583;SDS011;13463;51.526;9.928;2023-12-20T06:13:36;7.72;;;2.08;;
25583;SDS011;13463;51.526;9.928;2023-12-20T06:16:05;10.38;;;2.17;;
25583;SDS011;13463;51.526;9.928;2023-12-20T06:18:33;13.18;;;1.80;;
25583;SDS011;13463;51.526;9.928;2023-12-20T06:20:59;8.85;;;1.98;;
25583;SDS011;13463;51.526;9.928;2023-12-20T06:23:26;10.73;;;2.28;;
25583;SDS011;13463;51.526;9.928;2023-12-20T06:25:54;9.82;;;1.95;;
25583;SDS011;13463;51.526;9.928;2023-12-20T06:28:20;20.88;;;2.88;;
25583;SDS011;13463;51.526;9.928;2023-12-20T06:30:47;12.07;;;2.22;;
25583;SDS011;13463;51.526;9.928;2023-12-20T06:33:16;11.45;;;2.45;;
25583;SDS011;13463;51.526;9.928;2023-12-20T06:35:43;10.05;;;3.03;;
25583;SDS011;13463;51.526;9.928;2023-12-20T06:38:10;11.93;;;2.28;;
25583;SDS011;13463;51.526;9.928;2023-12-20T06:40:36;9.80;;;2.25;;
25583;SDS011;13463;51.526;9.928;2023-12-20T06:43:03;10.38;;;2.53;;
25583;SDS011;13463;51.526;9.928;2023-12-20T06:45:41;9.07;;;1.70;;
25583;SDS011;13463;51.526;9.928;2023-12-20T06:48:08;8.25;;;1.80;;
25583;SDS011;13463;51.526;9.928;2023-12-20T06:50:37;5.60;;;1.55;;
25583;SDS011;13463;51.526;9.928;2023-12-20T06:53:06;12.27;;;2.22;;
25583;SDS011;13463;51.526;9.928;2023-12-20T06:55:34;8.02;;;2.13;;
25583;SDS011;13463;51.526;9.928;2023-12-20T06:58:02;13.98;;;2.13;;
25583;SDS011;13463;51.526;9.928;2023-12-20T07:00:28;7.82;;;2.00;;
25583;SDS011;13463;51.526;9.928;2023-12-20T07:02:56;10.32;;;2.13;;
25583;SDS011;13463;51.526;9.928;2023-12-20T07:05:22;11.20;;;2.60;;
25583;SDS011;13463;51.526;9.928;2023-12-20T07:07:49;8.25;;;2.10;;
25583;SDS011;13463;51.526;9.928;2023-12-20T07:10:16;9.98;;;2.50;;
25583;SDS011;13463;51.526;9.928;2023-12-20T07:12:43;12.55;;;2.35;;
25583;SDS011;13463;51.526;9.928;2023-12-20T07:15:10;10.40;;;2.50;;
25583;SDS011;13463;51.526;9.928;2023-12-20T07:17:37;11.48;;;2.58;;
25583;SDS011;13463;51.526;9.928;2023-12-20T07:20:04;6.18;;;2.28;;
25583;SDS011;13463;51.526;9.928;2023-12-20T07:22:33;12.15;;;2.42;;
25583;SDS011;13463;51.526;9.928;2023-12-20T07:25:00;6.75;;;2.25;;
25583;SDS011;13463;51.526;9.928;2023-12-20T07:27:26;12.00;;;2.65;;
25583;SDS011;13463;51.526;9.928;2023-12-20T07:29:53;10.52;;;2.65;;
25583;SDS011;13463;51.526;9.928;2023-12-20T07:32:19;10.23;;;2.35;;
25583;SDS011;13463;51.526;9.928;2023-12-20T07:34:46;11.60;;;2.30;;
25583;SDS011;13463;51.526;9.928;2023-12-20T07:37:13;5.65;;;1.83;;
25583;SDS011;13463;51.526;9.928;2023-12-20T07:39:40;11.25;;;2.30;;
25583;SDS011;13463;51.526;9.928;2023-12-20T07:42:08;15.23;;;3.15;;
25583;SDS011;13463;51.526;9.928;2023-12-20T07:44:35;11.73;;;2.78;;
25583;SDS011;13463;51.526;9.928;2023-12-20T07:47:05;11.45;;;2.83;;
25583;SDS011;13463;51.526;9.928;2023-12-20T07:49:31;9.77;;;2.88;;
25583;SDS011;13463;51.526;9.928;2023-12-20T07:51:58;12.63;;;3.05;;
25583;SDS011;13463;51.526;9.928;2023-12-20T07:54:25;16.45;;;2.60;;
25583;SDS011;13463;51.526;9.928;2023-12-20T07:56:52;13.27;;;3.00;;
25583;SDS011;13463;51.526;9.928;2023-12-20T07:59:18;13.90;;;2.95;;
25583;SDS011;13463;51.526;9.928;2023-12-20T08:01:57;9.48;;;3.28;;
25583;SDS011;13463;51.526;9.928;2023-12-20T08:04:24;14.45;;;2.63;;
25583;SDS011;13463;51.526;9.928;2023-12-20T08:06:51;11.90;;;2.60;;
25583;SDS011;13463;51.526;9.928;2023-12-20T08:09:18;9.23;;;3.08;;
25583;SDS011;13463;51.526;9.928;2023-12-20T08:11:46;15.10;;;2.90;;
25583;SDS011;13463;51.526;9.928;2023-12-20T08:14:13;14.52;;;2.90;;
25583;SDS011;13463;51.526;9.928;2023-12-20T08:16:40;16.05;;;3.65;;
25583;SDS011;13463;51.526;9.928;2023-12-20T08:19:06;15.32;;;3.78;;
25583;SDS011;13463;51.526;9.928;2023-12-20T08:21:34;17.55;;;5.25;;
25583;SDS011;13463;51.526;9.928;2023-12-20T08:26:30;22.65;;;4.25;;
25583;SDS011;13463;51.526;9.928;2023-12-20T08:28:57;10.32;;;3.00;;
25583;SDS011;13463;51.526;9.928;2023-12-20T08:31:27;11.93;;;3.35;;
25583;SDS011;13463;51.526;9.928;2023-12-20T08:33:53;17.50;;;4.10;;
25583;SDS011;13463;51.526;9.928;2023-12-20T08:36:20;12.38;;;3.00;;
25583;SDS011;13463;51.526;9.928;2023-12-20T08:38:49;14.07;;;3.88;;
25583;SDS011;13463;51.526;9.928;2023-12-20T08:41:18;17.63;;;3.15;;
25583;SDS011;13463;51.526;9.928;2023-12-20T08:43:45;13.70;;;3.08;;
25583;SDS011;13463;51.526;9.928;2023-12-20T08:46:13;10.45;;;3.40;;
25583;SDS011;13463;51.526;9.928;2023-12-20T08:48:40;12.07;;;4.05;;
25583;SDS011;13463;51.526;9.928;2023-12-20T08:51:07;21.65;;;3.95;;
25583;SDS011;13463;51.526;9.928;2023-12-20T08:53:35;10.50;;;3.03;;
25583;SDS011;13463;51.526;9.928;2023-12-20T08:56:01;15.23;;;3.42;;
25583;SDS011;13463;51.526;9.928;2023-12-20T08:58:28;11.40;;;3.97;;
25583;SDS011;13463;51.526;9.928;2023-12-20T09:00:55;13.20;;;3.15;;
25583;SDS011;13463;51.526;9.928;2023-12-20T09:03:23;13.15;;;2.95;;
25583;SDS011;13463;51.526;9.928;2023-12-20T09:05:50;18.17;;;3.95;;
25583;SDS011;13463;51.526;9.928;2023-12-20T09:08:17;16.27;;;3.58;;
25583;SDS011;13463;51.526;9.928;2023-12-20T09:10:43;18.38;;;3.33;;
25583;SDS011;13463;51.526;9.928;2023-12-20T09:13:11;13.57;;;3.80;;
25583;SDS011;13463;51.526;9.928;2023-12-20T09:15:37;18.70;;;3.83;;
25583;SDS011;13463;51.526;9.928;2023-12-20T09:18:04;10.77;;;2.42;;
25583;SDS011;13463;51.526;9.928;2023-12-20T09:20:34;11.13;;;3.00;;
25583;SDS011;13463;51.526;9.928;2023-12-20T09:23:01;16.73;;;4.38;;
25583;SDS011;13463;51.526;9.928;2023-12-20T09:25:28;14.07;;;2.70;;
25583;SDS011;13463;51.526;9.928;2023-12-20T09:27:55;14.82;;;3.28;;
25583;SDS011;13463;51.526;9.928;2023-12-20T09:30:22;12.18;;;3.13;;
25583;SDS011;13463;51.526;9.928;2023-12-20T09:32:53;14.48;;;4.10;;
25583;SDS011;13463;51.526;9.928;2023-12-20T09:35:21;14.82;;;3.35;;
25583;SDS011;13463;51.526;9.928;2023-12-20T09:37:48;13.13;;;2.83;;
25583;SDS011;13463;51.526;9.928;2023-12-20T09:40:17;12.60;;;3.00;;
25583;SDS011;13463;51.526;9.928;2023-12-20T09:42:58;9.43;;;2.45;;
25583;SDS011;13463;51.526;9.928;2023-12-20T09:45:45;8.75;;;2.33;;
25583;SDS011;13463;51.526;9.928;2023-12-20T09:48:13;11.68;;;2.70;;
25583;SDS011;13463;51.526;9.928;2023-12-20T09:50:43;11.65;;;2.60;;
25583;SDS011;13463;51.526;9.928;2023-12-20T09:53:17;9.02;;;2.55;;
25583;SDS011;13463;51.526;9.928;2023-12-20T09:55:45;10.82;;;2.35;;
25583;SDS011;13463;51.526;9.928;2023-12-20T09:58:12;11.13;;;2.40;;
25583;SDS011;13463;51.526;9.928;2023-12-20T10:00:39;8.60;;;3.53;;
25583;SDS011;13463;51.526;9.928;2023-12-20T10:03:06;9.30;;;3.53;;
25583;SDS011;13463;51.526;9.928;2023-12-20T10:05:34;10.07;;;2.83;;
25583;SDS011;13463;51.526;9.928;2023-12-20T10:08:01;12.02;;;2.58;;
25583;SDS011;13463;51.526;9.928;2023-12-20T10:10:30;14.77;;;3.13;;
25583;SDS011;13463;51.526;9.928;2023-12-20T10:13:11;13.35;;;3.22;;
25583;SDS011;13463;51.526;9.928;2023-12-20T10:15:39;14.05;;;3.08;;
25583;SDS011;13463;51.526;9.928;2023-12-20T10:18:08;9.85;;;2.42;;
25583;SDS011;13463;51.526;9.928;2023-12-20T10:20:34;9.63;;;3.03;;
25583;SDS011;13463;51.526;9.928;2023-12-20T10:23:01;10.18;;;2.90;;
25583;SDS011;13463;51.526;9.928;2023-12-20T10:25:28;10.05;;;2.55;;
25583;SDS011;13463;51.526;9.928;2023-12-20T10:28:14;12.88;;;3.60;;
25583;SDS011;13463;51.526;9.928;2023-12-20T10:30:46;8.18;;;2.58;;
25583;SDS011;13463;51.526;9.928;2023-12-20T10:33:13;8.45;;;2.30;;
25583;SDS011;13463;51.526;9.928;2023-12-20T10:35:49;9.95;;;2.58;;
25583;SDS011;13463;51.526;9.928;2023-12-20T10:38:16;8.18;;;2.65;;
25583;SDS011;13463;51.526;9.928;2023-12-20T10:40:42;10.80;;;2.42;;
25583;SDS011;13463;51.526;9.928;2023-12-20T10:43:12;16.05;;;2.97;;
25583;SDS011;13463;51.526;9.928;2023-12-20T10:45:40;14.13;;;2.67;;
25583;SDS011;13463;51.526;9.928;2023-12-20T10:48:10;13.27;;;2.85;;
25583;SDS011;13463;51.526;9.928;2023-12-20T10:53:07;10.05;;;2.65;;
25583;SDS011;13463;51.526;9.928;2023-12-20T10:55:33;9.50;;;3.10;;
25583;SDS011;13463;51.526;9.928;2023-12-20T10:58:01;9.02;;;3.25;;
25583;SDS011;13463;51.526;9.928;2023-12-20T11:00:32;13.95;;;2.75;;
25583;SDS011;13463;51.526;9.928;2023-12-20T11:03:04;9.38;;;3.08;;
25583;SDS011;13463;51.526;9.928;2023-12-20T11:05:49;10.13;;;2.33;;
25583;SDS011;13463;51.526;9.928;2023-12-20T11:13:31;6.93;;;2.08;;
25583;SDS011;13463;51.526;9.928;2023-12-20T11:16:00;6.97;;;2.17;;
25583;SDS011;13463;51.526;9.928;2023-12-20T11:18:29;4.95;;;2.22;;
25583;SDS011;13463;51.526;9.928;2023-12-20T11:21:02;4.03;;;1.58;;
25583;SDS011;13463;51.526;9.928;2023-12-20T11:23:33;7.00;;;1.80;;
25583;SDS011;13463;51.526;9.928;2023-12-20T11:26:01;8.18;;;2.47;;
25583;SDS011;13463;51.526;9.928;2023-12-20T11:28:28;7.35;;;2.30;;
25583;SDS011;13463;51.526;9.928;2023-12-20T11:30:59;9.32;;;2.45;;
25583;SDS011;13463;51.526;9.928;2023-12-20T11:36:01;9.70;;;2.15;;
25583;SDS011;13463;51.526;9.928;2023-12-20T11:38:38;8.00;;;1.90;;
25583;SDS011;13463;51.526;9.928;2023-12-20T11:41:05;12.27;;;2.30;;
25583;SDS011;13463;51.526;9.928;2023-12-20T11:43:36;8.07;;;2.30;;
25583;SDS011;13463;51.526;9.928;2023-12-20T11:48:35;12.13;;;2.40;;
25583;SDS011;13463;51.526;9.928;2023-12-20T11:51:08;4.97;;;1.70;;
25583;SDS011;13463;51.526;9.928;2023-12-20T11:53:36;6.85;;;2.50;;
25583;SDS011;13463;51.526;9.928;2023-12-20T11:56:04;9.98;;;2.08;;
25583;SDS011;13463;51.526;9.928;2023-12-20T11:58:33;8.90;;;2.60;;
25583;SDS011;13463;51.526;9.928;2023-12-20T12:01:00;6.10;;;2.40;;
25583;SDS011;13463;51.526;9.928;2023-12-20T12:03:28;9.07;;;1.85;;
25583;SDS011;13463;51.526;9.928;2023-12-20T12:05:55;5.57;;;1.80;;
25583;SDS011;13463;51.526;9.928;2023-12-20T12:08:22;4.30;;;1.52;;
25583;SDS011;13463;51.526;9.928;2023-12-20T12:10:49;6.55;;;2.70;;
25583;SDS011;13463;51.526;9.928;2023-12-20T12:13:15;8.18;;;2.00;;
25583;SDS011;13463;51.526;9.928;2023-12-20T12:15:42;11.57;;;2.95;;
25583;SDS011;13463;51.526;9.928;2023-12-20T12:18:09;4.95;;;2.22;;
25583;SDS011;13463;51.526;9.928;2023-12-20T12:20:36;4.45;;;1.85;;
25583;SDS011;13463;51.526;9.928;2023-12-20T12:23:04;10.55;;;2.15;;
25583;SDS011;13463;51.526;9.928;2023-12-20T12:25:33;4.47;;;1.80;;
25583;SDS011;13463;51.526;9.928;2023-12-20T12:28:07;11.80;;;2.50;;
25583;SDS011;13463;51.526;9.928;2023-12-20T12:30:33;5.32;;;1.70;;
25583;SDS011;13463;51.526;9.928;2023-12-20T12:33:08;8.10;;;2.15;;
25583;SDS011;13463;51.526;9.928;2023-12-20T12:35:34;5.78;;;2.03;;
25583;SDS011;13463;51.526;9.928;2023-12-20T12:38:01;7.50;;;1.95;;
25583;SDS011;13463;51.526;9.928;2023-12-20T12:40:29;10.77;;;2.30;;
25583;SDS011;13463;51.526;9.928;2023-12-20T12:42:56;9.73;;;3.13;;
25583;SDS011;13463;51.526;9.928;2023-12-20T12:45:22;10.70;;;2.47;;
25583;SDS011;13463;51.526;9.928;2023-12-20T12:47:49;6.93;;;1.92;;
25583;SDS011;13463;51.526;9.928;2023-12-20T12:50:15;8.13;;;3.15;;
25583;SDS011;13463;51.526;9.928;2023-12-20T12:52:43;7.32;;;1.85;;
25583;SDS011;13463;51.526;9.928;2023-12-20T12:55:10;5.45;;;1.90;;
25583;SDS011;13463;51.526;9.928;2023-12-20T12:57:36;12.57;;;3.50;;
25583;SDS011;13463;51.526;9.928;2023-12-20T13:00:03;6.03;;;2.13;;
25583;SDS011;13463;51.526;9.928;2023-12-20T13:02:31;11.68;;;2.83;;
25583;SDS011;13463;51.526;9.928;2023-12-20T13:04:57;8.80;;;2.50;;
25583;SDS011;13463;51.526;9.928;2023-12-20T13:07:24;10.07;;;2.80;;
25583;SDS011;13463;51.526;9.928;2023-12-20T13:09:50;6.45;;;2.97;;
25583;SDS011;13463;51.526;9.928;2023-12-20T13:12:17;12.02;;;3.28;;
25583;SDS011;13463;51.526;9.928;2023-12-20T13:14:43;9.55;;;2.67;;
25583;SDS011;13463;51.526;9.928;2023-12-20T13:17:11;5.00;;;2.50;;
25583;SDS011;13463;51.526;9.928;2023-12-20T13:19:38;7.57;;;2.25;;
25583;SDS011;13463;51.526;9.928;2023-12-20T13:22:05;10.15;;;2.63;;
25583;SDS011;13463;51.526;9.928;2023-12-20T13:24:32;9.48;;;2.80;;
25583;SDS011;13463;51.526;9.928;2023-12-20T13:26:59;9.77;;;3.20;;
25583;SDS011;13463;51.526;9.928;2023-12-20T13:29:25;9.27;;;2.42;;
25583;SDS011;13463;51.526;9.928;2023-12-20T13:31:55;9.98;;;2.75;;
25583;SDS011;13463;51.526;9.928;2023-12-20T13:34:21;7.28;;;3.13;;
25583;SDS011;13463;51.526;9.928;2023-12-20T13:36:48;13.32;;;3.03;;
25583;SDS011;13463;51.526;9.928;2023-12-20T13:39:17;8.65;;;2.20;;
25583;SDS011;13463;51.526;9.928;2023-12-20T13:41:44;11.70;;;3.22;;
25583;SDS011;13463;51.526;9.928;2023-12-20T13:44:10;6.65;;;2.70;;
25583;SDS011;13463;51.526;9.928;2023-12-20T13:46:38;6.80;;;2.50;;
25583;SDS011;13463;51.526;9.928;2023-12-20T13:49:06;10.63;;;3.45;;
25583;SDS011;13463;51.526;9.928;2023-12-20T13:51:33;10.77;;;3.67;;
25583;SDS011;13463;51.526;9.928;2023-12-20T13:54:00;7.93;;;3.47;;
25583;SDS011;13463;51.526;9.928;2023-12-20T13:56:27;9.90;;;2.88;;
25583;SDS011;13463;51.526;9.928;2023-12-20T13:58:53;12.23;;;3.42;;
25583;SDS011;13463;51.526;9.928;2023-12-20T14:01:20;6.82;;;2.80;;
25583;SDS011;13463;51.526;9.928;2023-12-20T14:03:46;7.10;;;3.17;;
25583;SDS011;13463;51.526;9.928;2023-12-20T14:06:13;12.45;;;2.67;;
25583;SDS011;13463;51.526;9.928;2023-12-20T14:08:41;7.50;;;3.28;;
25583;SDS011;13463;51.526;9.928;2023-12-20T14:11:08;7.68;;;3.30;;
25583;SDS011;13463;51.526;9.928;2023-12-20T14:13:35;6.63;;;3.17;;
25583;SDS011;13463;51.526;9.928;2023-12-20T14:16:02;8.82;;;3.25;;
25583;SDS011;13463;51.526;9.928;2023-12-20T14:18:30;11.93;;;2.67;;
25583;SDS011;13463;51.526;9.928;2023-12-20T14:20:57;9.90;;;3.72;;
25583;SDS011;13463;51.526;9.928;2023-12-20T14:23:23;9.52;;;3.28;;
25583;SDS011;13463;51.526;9.928;2023-12-20T14:25:50;9.75;;;2.85;;
25583;SDS011;13463;51.526;9.928;2023-12-20T14:28:18;12.77;;;3.83;;
25583;SDS011;13463;51.526;9.928;2023-12-20T14:30:45;6.93;;;2.88;;
25583;SDS011;13463;51.526;9.928;2023-12-20T14:33:12;10.10;;;3.35;;
25583;SDS011;13463;51.526;9.928;2023-12-20T14:35:40;6.47;;;2.60;;
25583;SDS011;13463;51.526;9.928;2023-12-20T14:38:11;12.05;;;2.67;;
25583;SDS011;13463;51.526;9.928;2023-12-20T14:40:39;9.77;;;2.65;;
25583;SDS011;13463;51.526;9.928;2023-12-20T14:43:06;9.60;;;2.88;;
25583;SDS011;13463;51.526;9.928;2023-12-20T14:45:33;5.65;;;2.30;;
25583;SDS011;13463;51.526;9.928;2023-12-20T14:48:00;6.32;;;1.98;;
25583;SDS011;13463;51.526;9.928;2023-12-20T14:50:26;12.40;;;2.97;;
25583;SDS011;13463;51.526;9.928;2023-12-20T14:52:53;5.72;;;2.40;;
25583;SDS011;13463;51.526;9.928;2023-12-20T14:55:21;4.35;;;2.15;;
25583;SDS011;13463;51.526;9.928;2023-12-20T14:57:48;6.53;;;2.67;;
25583;SDS011;13463;51.526;9.928;2023-12-20T15:00:16;7.85;;;2.15;;